Time;durP1;ratioP1;P1;durP2;ratioP2;P2;SDS_P1;SDS_P2;PMS_P1;PMS_P2;Temp;Humidity;BMP_temperature;BMP_pressure;BME280_temperature;BME280_humidity;BME280_pressure;Samples;Min_cycle;Max_cycle;Signal;HPM_P1;HPM_P2
2023/05/02 00:00:13;;;;;;;15.18;8.25;;;11.70;90.40;;;;;;5016163;28;20045;-72
2023/05/02 00:02:39;;;;;;;16.30;9.18;;;11.70;90.50;;;;;;4999736;28;20033;-73
2023/05/02 00:05:05;;;;;;;17.02;8.77;;;11.60;90.60;;;;;;5012687;28;20042;-72
2023/05/02 00:07:31;;;;;;;16.02;8.02;;;11.60;90.80;;;;;;5016101;28;20033;-72
2023/05/02 00:09:57;;;;;;;13.32;6.88;;;11.60;90.90;;;;;;5014544;28;20038;-73
2023/05/02 00:12:23;;;;;;;13.45;5.82;;;11.60;91.00;;;;;;4998356;28;20535;-73
2023/05/02 00:14:48;;;;;;;12.45;6.18;;;11.60;91.20;;;;;;5034433;28;20378;-72
2023/05/02 00:17:18;;;;;;;15.70;6.43;;;11.60;91.20;;;;;;5000056;28;20132;-72
2023/05/02 00:19:44;;;;;;;10.98;5.90;;;11.60;91.70;;;;;;5000842;28;20513;-73
2023/05/02 00:22:09;;;;;;;11.18;4.95;;;11.50;91.60;;;;;;5015685;28;20041;-73
2023/05/02 00:24:35;;;;;;;14.27;5.32;;;11.50;91.60;;;;;;5015467;28;20041;-72
2023/05/02 00:27:01;;;;;;;14.52;5.28;;;11.40;91.80;;;;;;4996416;28;20046;-72
2023/05/02 00:29:26;;;;;;;11.55;5.30;;;11.30;92.00;;;;;;5016816;28;20052;-71
2023/05/02 00:31:52;;;;;;;9.95;4.80;;;11.30;92.20;;;;;;5017652;28;20033;-71
2023/05/02 00:34:17;;;;;;;14.35;4.80;;;11.20;92.50;;;;;;5008708;28;20121;-69
2023/05/02 00:36:43;;;;;;;10.60;4.45;;;11.10;93.00;;;;;;5004165;28;20512;-70
2023/05/02 00:39:08;;;;;;;5.80;4.05;;;11.00;93.40;;;;;;5015408;28;20053;-69
2023/05/02 00:41:35;;;;;;;6.25;3.60;;;11.00;94.10;;;;;;5007845;28;20065;-71
2023/05/02 00:44:00;;;;;;;6.80;3.47;;;10.90;94.60;;;;;;5032503;28;20037;-72
2023/05/02 00:46:26;;;;;;;5.88;3.17;;;10.80;94.70;;;;;;5018695;28;20619;-70
2023/05/02 00:48:52;;;;;;;5.15;3.03;;;10.70;94.90;;;;;;5030242;28;20118;-72
2023/05/02 00:51:18;;;;;;;9.98;3.38;;;10.80;95.10;;;;;;5008050;28;20091;-71
2023/05/02 00:53:44;;;;;;;6.03;3.42;;;10.70;95.30;;;;;;5010062;28;20052;-68
2023/05/02 00:56:10;;;;;;;6.07;3.13;;;10.70;95.50;;;;;;5006020;28;20463;-72
2023/05/02 00:58:37;;;;;;;6.72;3.42;;;10.70;95.50;;;;;;4996988;28;20033;-70
2023/05/02 01:01:23;;;;;;;8.50;3.50;;;10.70;95.40;;;;;;5015118;28;20045;-71
2023/05/02 01:04:27;;;;;;;7.88;3.38;;;10.60;95.60;;;;;;5009653;28;20119;-72
2023/05/02 01:07:22;;;;;;;7.55;3.33;;;10.50;96.20;;;;;;5031169;28;20033;-71
2023/05/02 01:09:48;;;;;;;6.55;3.42;;;10.50;96.40;;;;;;4994825;28;20140;-71
2023/05/02 01:12:39;;;;;;;7.10;3.58;;;10.40;95.60;;;;;;5012546;28;20541;-72
2023/05/02 01:15:09;;;;;;;5.63;3.25;;;10.40;96.50;;;;;;5012675;28;20098;-72
2023/05/02 01:17:37;;;;;;;7.80;3.97;;;10.40;95.90;;;;;;5013733;28;20061;-72
2023/05/02 01:20:10;;;;;;;6.75;3.50;;;10.40;95.90;;;;;;4997802;28;20072;-71
2023/05/02 01:22:39;;;;;;;8.05;3.42;;;10.30;96.30;;;;;;5014573;28;20056;-72
2023/05/02 01:25:30;;;;;;;8.13;3.50;;;10.30;96.00;;;;;;5015127;28;20124;-72
2023/05/02 01:28:21;;;;;;;8.48;3.50;;;10.30;97.10;;;;;;5012565;28;20044;-72
2023/05/02 01:30:49;;;;;;;6.60;3.38;;;10.20;97.30;;;;;;5013167;28;20136;-71
2023/05/02 01:33:17;;;;;;;6.80;3.53;;;10.20;96.40;;;;;;5010404;28;20059;-72
2023/05/02 01:35:45;;;;;;;6.13;3.40;;;10.20;96.50;;;;;;5012843;28;20041;-72
2023/05/02 01:38:17;;;;;;;6.38;3.45;;;10.20;96.60;;;;;;5014338;28;20041;-71
2023/05/02 01:40:48;;;;;;;9.02;3.75;;;10.20;96.90;;;;;;4999934;28;20163;-71
2023/05/02 01:43:15;;;;;;;10.18;3.42;;;10.20;97.20;;;;;;5013060;28;20038;-71
2023/05/02 01:45:44;;;;;;;7.20;3.80;;;10.20;96.90;;;;;;5015813;28;20041;-71
2023/05/02 01:48:11;;;;;;;9.85;3.72;;;10.20;96.90;;;;;;5012198;28;20045;-71
2023/05/02 01:50:40;;;;;;;9.18;3.22;;;10.10;97.10;;;;;;4997952;28;20060;-71
2023/05/02 01:53:10;;;;;;;5.63;3.22;;;10.10;97.10;;;;;;5013964;28;20033;-71
2023/05/02 01:55:37;;;;;;;10.18;3.95;;;10.10;97.30;;;;;;5009286;28;20599;-71
2023/05/02 01:58:04;;;;;;;5.40;2.75;;;10.10;97.10;;;;;;5021179;28;20037;-71
2023/05/02 02:00:31;;;;;;;8.43;3.13;;;10.20;97.30;;;;;;5005404;28;20078;-71
2023/05/02 02:02:58;;;;;;;7.88;3.58;;;10.10;97.30;;;;;;5019059;28;20048;-71
2023/05/02 02:05:25;;;;;;;5.05;3.10;;;10.20;97.30;;;;;;5012757;28;20091;-71
2023/05/02 02:07:51;;;;;;;8.32;3.00;;;10.20;97.30;;;;;;5022453;28;20038;-71
2023/05/02 02:10:17;;;;;;;7.13;3.13;;;10.20;97.20;;;;;;5025849;28;20448;-71
2023/05/02 02:12:49;;;;;;;6.55;3.17;;;10.20;97.20;;;;;;5008379;28;20041;-71
2023/05/02 02:15:15;;;;;;;7.15;3.53;;;10.20;97.20;;;;;;5011373;28;20045;-72
2023/05/02 02:17:59;;;;;;;9.85;3.17;;;10.20;97.20;;;;;;5027787;28;20385;-71
2023/05/02 02:20:30;;;;;;;7.03;3.00;;;10.20;97.60;;;;;;5006990;28;20905;-71
2023/05/02 02:22:57;;;;;;;9.32;3.63;;;10.20;97.30;;;;;;5022409;28;20428;-71
2023/05/02 02:25:24;;;;;;;10.27;3.63;;;10.10;97.60;;;;;;5013669;28;20037;-71
2023/05/02 02:27:50;;;;;;;12.68;3.20;;;10.00;97.40;;;;;;5012816;28;20037;-72
2023/05/02 02:30:16;;;;;;;11.55;3.70;;;9.90;97.30;;;;;;5012695;28;20107;-71
2023/05/02 02:32:42;;;;;;;8.95;2.92;;;9.70;97.50;;;;;;4992854;28;20068;-72
2023/05/02 02:35:08;;;;;;;10.05;3.58;;;9.60;97.50;;;;;;5012946;28;20033;-71
2023/05/02 02:37:43;;;;;;;12.02;3.60;;;9.60;97.50;;;;;;4997366;28;20538;-71
2023/05/02 02:40:14;;;;;;;9.25;3.78;;;9.50;97.60;;;;;;5015630;28;20397;-71
2023/05/02 02:43:05;;;;;;;7.60;2.97;;;9.40;97.60;;;;;;5022699;28;20049;-69
2023/05/02 02:45:59;;;;;;;10.57;3.33;;;9.30;97.80;;;;;;5019768;28;20049;-72
2023/05/02 02:48:32;;;;;;;11.75;3.28;;;9.30;97.80;;;;;;4996298;28;20057;-71
2023/05/02 02:51:01;;;;;;;14.75;3.75;;;9.30;97.60;;;;;;5017408;28;20092;-71
2023/05/02 02:53:49;;;;;;;15.98;3.80;;;9.20;97.60;;;;;;4999529;28;20103;-71
2023/05/02 02:56:21;;;;;;;12.13;3.55;;;9.20;97.50;;;;;;5017329;28;20042;-71
2023/05/02 02:59:10;;;;;;;13.40;3.53;;;9.20;97.40;;;;;;5033609;28;20485;-72
2023/05/02 03:01:40;;;;;;;12.40;3.60;;;9.20;97.40;;;;;;5015128;28;20488;-71
2023/05/02 03:04:08;;;;;;;14.93;4.00;;;9.10;97.50;;;;;;5019327;28;20045;-71
2023/05/02 03:06:34;;;;;;;14.35;4.15;;;9.10;97.40;;;;;;4995272;28;20056;-69
2023/05/02 03:09:00;;;;;;;24.58;4.47;;;9.10;97.40;;;;;;5016765;28;20041;-70
2023/05/02 03:11:26;;;;;;;13.48;3.95;;;9.10;97.20;;;;;;5016399;28;20045;-71
2023/05/02 03:13:52;;;;;;;17.13;4.25;;;9.00;96.80;;;;;;5016094;28;20038;-71
2023/05/02 03:16:37;;;;;;;13.18;3.88;;;9.00;96.50;;;;;;5013751;28;20052;-69
2023/05/02 03:19:03;;;;;;;21.20;4.20;;;8.90;95.90;;;;;;5020459;28;20065;-70
2023/05/02 03:21:33;;;;;;;22.48;4.32;;;8.90;95.40;;;;;;5014388;28;20061;-71
2023/05/02 03:23:59;;;;;;;13.07;3.95;;;8.90;95.40;;;;;;5001540;28;20436;-69
2023/05/02 03:26:25;;;;;;;17.83;3.92;;;8.80;94.80;;;;;;5000899;28;20029;-69
2023/05/02 03:28:51;;;;;;;16.90;3.80;;;8.80;94.60;;;;;;5001199;28;20594;-70
2023/05/02 03:31:17;;;;;;;19.02;4.50;;;8.80;94.40;;;;;;5012926;28;20091;-70
2023/05/02 03:33:42;;;;;;;17.95;3.45;;;8.70;94.40;;;;;;5013747;28;20041;-70
2023/05/02 03:36:08;;;;;;;15.55;4.20;;;8.70;94.30;;;;;;5017618;28;20033;-71
2023/05/02 03:38:34;;;;;;;12.70;3.55;;;8.70;94.10;;;;;;5014567;28;20037;-70
2023/05/02 03:40:59;;;;;;;15.48;3.90;;;8.70;93.90;;;;;;4999064;28;20046;-72
2023/05/02 03:43:25;;;;;;;11.13;4.00;;;8.70;93.70;;;;;;5012528;28;20042;-70
2023/05/02 03:45:50;;;;;;;14.95;3.63;;;8.70;93.20;;;;;;5013271;28;20733;-71
2023/05/02 03:48:16;;;;;;;7.80;3.20;;;8.70;92.90;;;;;;5011655;28;20042;-70
2023/05/02 03:50:44;;;;;;;21.67;3.90;;;8.70;92.80;;;;;;5027664;28;20587;-68
2023/05/02 03:53:10;;;;;;;14.55;3.80;;;8.70;92.60;;;;;;5026109;28;20043;-69
2023/05/02 03:55:42;;;;;;;16.25;3.60;;;8.60;92.50;;;;;;5026903;28;20029;-68
2023/05/02 03:58:10;;;;;;;14.10;3.40;;;8.50;92.30;;;;;;5024495;28;20037;-71
2023/05/02 04:00:37;;;;;;;13.43;3.95;;;8.50;92.30;;;;;;5016082;28;20045;-70
2023/05/02 04:03:03;;;;;;;18.23;3.45;;;8.40;92.30;;;;;;5011772;28;20408;-69
2023/05/02 04:05:28;;;;;;;14.82;3.60;;;8.40;92.30;;;;;;5013276;28;20037;-70
2023/05/02 04:07:55;;;;;;;17.10;3.00;;;8.40;92.10;;;;;;5009586;28;20084;-70
2023/05/02 04:10:21;;;;;;;14.60;3.67;;;8.30;91.90;;;;;;5008943;28;20087;-71
2023/05/02 04:12:46;;;;;;;13.85;3.78;;;8.40;91.80;;;;;;5016850;28;20821;-70
2023/05/02 04:15:12;;;;;;;12.60;2.88;;;8.40;91.80;;;;;;5002448;28;20045;-71
2023/05/02 04:17:38;;;;;;;17.67;2.63;;;8.30;91.80;;;;;;5019433;28;20044;-72
2023/05/02 04:20:04;;;;;;;11.60;2.90;;;8.30;91.60;;;;;;5009371;28;20124;-70
2023/05/02 04:22:30;;;;;;;10.82;2.95;;;8.30;91.40;;;;;;5010563;28;20084;-71
2023/05/02 04:24:56;;;;;;;9.43;2.72;;;8.30;91.20;;;;;;5011817;28;20069;-71
2023/05/02 04:27:22;;;;;;;11.25;2.83;;;8.30;91.30;;;;;;5012374;28;20041;-71
2023/05/02 04:29:48;;;;;;;11.82;3.20;;;8.30;91.00;;;;;;5014639;28;20078;-70
2023/05/02 04:32:14;;;;;;;12.13;2.70;;;8.30;90.80;;;;;;5013336;28;20049;-71
2023/05/02 04:34:40;;;;;;;8.77;2.35;;;8.30;90.60;;;;;;5014016;28;20061;-73
2023/05/02 04:37:06;;;;;;;8.98;2.80;;;8.20;90.20;;;;;;5016411;28;20037;-73
2023/05/02 04:39:32;;;;;;;7.65;2.42;;;8.20;90.10;;;;;;4995064;28;20090;-71
2023/05/02 04:41:58;;;;;;;7.13;2.20;;;8.20;90.10;;;;;;5015193;28;20497;-72
2023/05/02 04:44:24;;;;;;;11.27;2.05;;;8.20;90.00;;;;;;5011045;28;20080;-70
2023/05/02 04:46:50;;;;;;;8.52;2.00;;;8.20;89.60;;;;;;5013928;28;20084;-72
2023/05/02 04:49:16;;;;;;;5.90;2.03;;;8.30;89.20;;;;;;5014902;28;20443;-71
2023/05/02 04:51:41;;;;;;;5.85;1.95;;;8.30;88.90;;;;;;5015470;28;20485;-70
2023/05/02 04:54:07;;;;;;;5.55;1.90;;;8.30;88.60;;;;;;5001121;28;20069;-73
2023/05/02 04:56:32;;;;;;;9.52;2.58;;;8.20;88.00;;;;;;4994016;28;20127;-71
2023/05/02 04:58:58;;;;;;;11.63;2.13;;;8.30;87.50;;;;;;5025067;28;20037;-73
2023/05/02 05:01:26;;;;;;;11.00;1.88;;;8.30;87.20;;;;;;5011232;28;20041;-71
2023/05/02 05:03:52;;;;;;;6.22;1.48;;;8.30;86.60;;;;;;5010591;28;20037;-71
2023/05/02 05:06:18;;;;;;;11.45;2.25;;;8.30;86.30;;;;;;5001315;28;20159;-71
2023/05/02 05:08:44;;;;;;;6.57;2.00;;;8.30;86.30;;;;;;5015467;28;20042;-72
2023/05/02 05:11:10;;;;;;;8.20;1.85;;;8.20;86.20;;;;;;5014592;28;20052;-71
2023/05/02 05:13:36;;;;;;;6.60;1.60;;;8.20;86.10;;;;;;4994976;28;20046;-72
2023/05/02 05:16:02;;;;;;;9.00;2.45;;;8.30;85.50;;;;;;4995231;28;20056;-72
2023/05/02 05:18:28;;;;;;;10.35;2.00;;;8.30;85.00;;;;;;4991569;28;20052;-72
2023/05/02 05:20:53;;;;;;;4.00;1.95;;;8.30;84.70;;;;;;5006390;28;20041;-72
2023/05/02 05:23:19;;;;;;;4.68;1.88;;;8.40;84.30;;;;;;5018474;28;20041;-72
2023/05/02 05:25:45;;;;;;;5.53;1.83;;;8.40;83.70;;;;;;5014637;28;20495;-71
2023/05/02 05:28:11;;;;;;;6.00;1.70;;;8.40;83.20;;;;;;5014459;28;20045;-72
2023/05/02 05:30:37;;;;;;;7.07;2.08;;;8.40;82.50;;;;;;5018744;28;20043;-71
2023/05/02 05:33:03;;;;;;;5.10;1.65;;;8.40;82.30;;;;;;5008043;28;20049;-72
2023/05/02 05:35:28;;;;;;;12.25;2.33;;;8.40;81.90;;;;;;5016744;28;20407;-73
2023/05/02 05:37:54;;;;;;;6.05;1.80;;;8.40;81.10;;;;;;5014592;28;20056;-72
2023/05/02 05:40:20;;;;;;;5.50;1.85;;;8.50;81.00;;;;;;5014597;28;20499;-72
2023/05/02 05:42:45;;;;;;;7.45;1.95;;;8.40;80.00;;;;;;5012030;28;20038;-73
2023/05/02 05:45:11;;;;;;;7.13;2.03;;;8.40;80.10;;;;;;5001886;28;20506;-72
2023/05/02 05:47:37;;;;;;;12.60;2.40;;;8.50;79.90;;;;;;4999599;28;20038;-72
2023/05/02 05:50:03;;;;;;;6.68;1.88;;;8.50;79.90;;;;;;4995112;28;20037;-72
2023/05/02 05:52:28;;;;;;;6.97;2.60;;;8.40;79.90;;;;;;5012898;28;20052;-72
2023/05/02 05:54:58;;;;;;;5.95;1.92;;;8.40;79.70;;;;;;5012930;28;20041;-72
2023/05/02 05:57:24;;;;;;;11.02;2.35;;;8.40;79.60;;;;;;5010337;28;20073;-72
2023/05/02 05:59:49;;;;;;;5.55;2.20;;;8.40;79.50;;;;;;5024827;28;20083;-72
2023/05/02 06:02:15;;;;;;;11.25;2.50;;;8.50;79.40;;;;;;4993646;28;20129;-73
2023/05/02 06:04:41;;;;;;;13.02;2.97;;;8.50;79.10;;;;;;5007934;28;20130;-70
2023/05/02 06:07:06;;;;;;;6.63;2.53;;;8.50;78.80;;;;;;5012748;28;20540;-71
2023/05/02 06:09:32;;;;;;;9.75;2.40;;;8.60;78.50;;;;;;5022915;28;20124;-72
2023/05/02 06:11:57;;;;;;;11.40;3.10;;;8.60;78.00;;;;;;5013581;28;20037;-73
2023/05/02 06:14:23;;;;;;;7.22;2.47;;;8.60;78.00;;;;;;5008261;28;20541;-72
2023/05/02 06:16:49;;;;;;;10.82;2.67;;;8.60;77.90;;;;;;4997071;28;20041;-72
2023/05/02 06:19:14;;;;;;;8.52;2.60;;;8.60;77.50;;;;;;5011062;28;20095;-72
2023/05/02 06:21:40;;;;;;;7.05;3.13;;;8.70;77.40;;;;;;5019627;28;20095;-71
2023/05/02 06:24:06;;;;;;;9.88;2.95;;;8.70;77.20;;;;;;5017645;28;20504;-72
2023/05/02 06:26:31;;;;;;;6.90;2.78;;;8.70;76.80;;;;;;5002305;28;20030;-71
2023/05/02 06:28:57;;;;;;;9.98;2.72;;;8.70;76.50;;;;;;5009170;28;20068;-72
2023/05/02 06:31:22;;;;;;;9.15;2.33;;;8.80;76.00;;;;;;5023620;28;20033;-72
2023/05/02 06:33:48;;;;;;;6.88;2.60;;;8.80;75.70;;;;;;5014720;28;20095;-71
2023/05/02 06:36:14;;;;;;;16.23;2.72;;;8.80;75.60;;;;;;5031766;28;20373;-71
2023/05/02 06:38:39;;;;;;;17.77;3.17;;;8.90;75.30;;;;;;5028557;28;20370;-72
2023/05/02 06:41:05;;;;;;;8.98;2.72;;;8.90;75.00;;;;;;5021169;28;20045;-71
2023/05/02 06:43:31;;;;;;;9.85;2.72;;;8.90;74.50;;;;;;5014895;28;20038;-72
2023/05/02 06:45:57;;;;;;;12.40;3.00;;;8.90;74.00;;;;;;5021503;28;20060;-71
2023/05/02 06:48:23;;;;;;;11.55;2.50;;;9.00;74.20;;;;;;4996182;28;20049;-72
2023/05/02 06:50:50;;;;;;;9.13;2.90;;;9.10;73.70;;;;;;5021223;28;20112;-71
2023/05/02 06:53:16;;;;;;;9.50;2.75;;;9.10;73.30;;;;;;5020411;28;20041;-71
2023/05/02 06:55:42;;;;;;;6.47;2.20;;;9.10;73.10;;;;;;5001231;28;20046;-70
2023/05/02 06:58:08;;;;;;;8.73;2.33;;;9.20;72.60;;;;;;5016509;28;20046;-71
2023/05/02 07:00:34;;;;;;;7.53;2.42;;;9.20;72.50;;;;;;5013702;28;20088;-71
2023/05/02 07:02:59;;;;;;;8.85;2.85;;;9.20;71.80;;;;;;5012150;28;20036;-71
2023/05/02 07:05:25;;;;;;;7.40;2.53;;;9.30;71.40;;;;;;5015329;28;20104;-69
2023/05/02 07:07:51;;;;;;;9.32;3.10;;;9.40;70.40;;;;;;5022097;28;20038;-71
2023/05/02 07:10:16;;;;;;;13.75;2.50;;;9.40;70.10;;;;;;5020443;28;20405;-71
2023/05/02 07:12:42;;;;;;;8.75;2.50;;;9.40;70.00;;;;;;5002816;28;20164;-71
2023/05/02 07:15:08;;;;;;;14.82;3.20;;;9.50;69.80;;;;;;5006975;28;20050;-71
2023/05/02 07:17:33;;;;;;;6.28;2.45;;;9.50;69.50;;;;;;5014312;28;20452;-69
2023/05/02 07:19:59;;;;;;;9.00;2.72;;;9.60;68.80;;;;;;4993050;28;20037;-70
2023/05/02 07:22:25;;;;;;;9.20;2.70;;;9.70;67.90;;;;;;5017467;28;20037;-70
2023/05/02 07:24:59;;;;;;;12.13;2.70;;;9.80;67.30;;;;;;5014678;28;20061;-69
2023/05/02 07:27:25;;;;;;;8.80;3.17;;;9.80;66.20;;;;;;5009661;28;20057;-71
2023/05/02 07:29:51;;;;;;;10.48;2.88;;;9.90;67.10;;;;;;5000424;28;20038;-71
2023/05/02 07:32:16;;;;;;;10.75;2.85;;;9.90;66.70;;;;;;5015680;28;20034;-71
2023/05/02 07:34:42;;;;;;;6.72;2.72;;;10.10;66.20;;;;;;5009202;28;20053;-72
2023/05/02 07:37:08;;;;;;;6.78;2.80;;;10.30;66.60;;;;;;5016060;28;21469;-70
2023/05/02 07:39:34;;;;;;;10.70;2.75;;;10.60;65.90;;;;;;5018058;28;20057;-70
2023/05/02 07:42:00;;;;;;;6.70;2.67;;;10.60;65.30;;;;;;5010995;28;20049;-71
2023/05/02 07:44:25;;;;;;;7.22;2.13;;;10.70;65.40;;;;;;5007975;28;20034;-71
2023/05/02 07:46:51;;;;;;;7.63;2.42;;;10.80;65.00;;;;;;5016240;28;20045;-72
2023/05/02 07:49:18;;;;;;;7.07;2.30;;;10.90;65.30;;;;;;5011560;28;20037;-71
2023/05/02 07:51:44;;;;;;;8.07;2.30;;;11.00;63.30;;;;;;5022919;28;20037;-71
2023/05/02 07:54:17;;;;;;;9.52;2.55;;;11.10;63.20;;;;;;5006919;28;20052;-70
2023/05/02 07:56:43;;;;;;;9.75;2.45;;;11.30;60.20;;;;;;5003711;28;20037;-72
2023/05/02 07:59:08;;;;;;;6.13;2.05;;;11.50;62.80;;;;;;5022218;28;20044;-68
2023/05/02 08:01:34;;;;;;;9.23;2.75;;;11.50;62.00;;;;;;5017863;28;20824;-71
2023/05/02 08:04:00;;;;;;;7.35;2.63;;;11.70;61.20;;;;;;5009634;28;20050;-71
2023/05/02 08:06:27;;;;;;;8.02;2.35;;;11.90;61.70;;;;;;5019892;28;20041;-72
2023/05/02 08:08:53;;;;;;;8.80;2.70;;;12.10;61.20;;;;;;5012011;28;20038;-71
2023/05/02 08:11:20;;;;;;;11.10;2.70;;;11.90;59.30;;;;;;5017009;28;20389;-71
2023/05/02 08:13:46;;;;;;;11.05;2.40;;;12.00;59.90;;;;;;5012721;28;20042;-72
2023/05/02 08:16:12;;;;;;;6.80;2.60;;;12.00;59.50;;;;;;5027006;28;20076;-70
2023/05/02 08:18:38;;;;;;;9.32;2.50;;;12.10;59.20;;;;;;5027112;28;20042;-71
2023/05/02 08:21:03;;;;;;;7.82;2.53;;;12.00;59.00;;;;;;5026758;28;20091;-69
2023/05/02 08:23:30;;;;;;;7.57;2.95;;;12.10;58.30;;;;;;5017703;28;20045;-70
2023/05/02 08:25:55;;;;;;;8.25;2.30;;;12.30;57.90;;;;;;5026761;28;20041;-70
2023/05/02 08:28:21;;;;;;;13.60;2.70;;;12.50;58.10;;;;;;5012236;28;20045;-71
2023/05/02 08:30:47;;;;;;;5.35;2.20;;;12.50;57.90;;;;;;5010974;28;20052;-70
2023/05/02 08:33:13;;;;;;;8.73;2.45;;;12.40;57.90;;;;;;5021270;28;20045;-69
2023/05/02 08:35:39;;;;;;;10.05;2.78;;;12.30;57.70;;;;;;5029513;28;20124;-71
2023/05/02 08:38:05;;;;;;;6.90;2.20;;;12.30;57.70;;;;;;5006478;28;20150;-71
2023/05/02 08:40:35;;;;;;;9.65;2.67;;;12.10;57.50;;;;;;5027093;28;20074;-70
2023/05/02 08:43:01;;;;;;;7.38;2.40;;;11.90;56.70;;;;;;5012519;28;20029;-71
2023/05/02 08:45:36;;;;;;;8.82;2.60;;;11.70;57.50;;;;;;5008757;28;20873;-71
2023/05/02 08:48:07;;;;;;;8.73;2.55;;;11.60;57.50;;;;;;5025779;28;20139;-71
2023/05/02 08:50:37;;;;;;;7.75;2.63;;;11.50;57.70;;;;;;5003199;28;20042;-71
2023/05/02 08:53:05;;;;;;;6.32;2.10;;;11.50;57.60;;;;;;5001642;28;20049;-71
2023/05/02 08:55:32;;;;;;;5.18;2.47;;;11.60;57.70;;;;;;5011927;28;20049;-70
2023/05/02 08:57:59;;;;;;;7.35;2.55;;;11.80;57.80;;;;;;4998079;28;20121;-70
2023/05/02 09:00:26;;;;;;;5.43;2.10;;;12.00;57.50;;;;;;5007859;28;21030;-70
2023/05/02 09:03:13;;;;;;;5.53;1.95;;;12.20;57.00;;;;;;4993166;28;20120;-71
2023/05/02 09:05:40;;;;;;;6.68;2.22;;;12.20;56.70;;;;;;5023513;28;20038;-71
2023/05/02 09:08:07;;;;;;;7.97;2.10;;;12.20;56.90;;;;;;5008666;28;20102;-70
2023/05/02 09:10:36;;;;;;;4.32;1.73;;;12.20;56.80;;;;;;5026906;28;20469;-70
2023/05/02 09:13:28;;;;;;;4.47;1.60;;;12.30;56.10;;;;;;5027153;28;20801;-70
2023/05/02 09:16:16;;;;;;;5.88;1.60;;;12.20;54.10;;;;;;4997581;28;20092;-70
2023/05/02 09:18:46;;;;;;;2.22;1.52;;;12.30;54.30;;;;;;5017327;28;20065;-70
2023/05/02 09:21:12;;;;;;;3.83;1.40;;;12.30;55.50;;;;;;5015401;28;20033;-71
2023/05/02 09:23:45;;;;;;;4.82;1.40;;;12.20;55.40;;;;;;5010035;28;20052;-70
2023/05/02 09:26:21;;;;;;;4.07;1.20;;;12.40;53.50;;;;;;5019749;28;20064;-71
2023/05/02 09:28:54;;;;;;;2.22;1.30;;;12.30;53.50;;;;;;5027974;28;20052;-70
2023/05/02 09:31:32;;;;;;;5.78;1.17;;;12.30;54.20;;;;;;4999784;28;20140;-71
2023/05/02 09:34:11;;;;;;;4.78;1.17;;;12.20;54.30;;;;;;5024378;28;20052;-72
2023/05/02 09:36:42;;;;;;;3.65;1.00;;;12.30;53.80;;;;;;5028068;28;20041;-71
2023/05/02 09:39:13;;;;;;;2.00;0.95;;;12.40;54.00;;;;;;5027844;28;20057;-70
2023/05/02 09:41:42;;;;;;;4.85;1.17;;;12.50;53.70;;;;;;5029407;28;20099;-70
2023/05/02 09:44:19;;;;;;;4.40;1.35;;;12.60;53.50;;;;;;5027849;28;20084;-70
2023/05/02 09:46:47;;;;;;;2.50;1.10;;;13.00;52.30;;;;;;5026990;28;20041;-71
2023/05/02 09:49:13;;;;;;;4.05;1.25;;;13.20;52.10;;;;;;5023476;28;20084;-71
2023/05/02 09:51:40;;;;;;;5.07;1.40;;;13.40;51.70;;;;;;5026412;28;20037;-71
2023/05/02 09:54:05;;;;;;;3.33;0.80;;;13.50;51.50;;;;;;5029676;28;20099;-71
2023/05/02 09:56:56;;;;;;;5.07;1.20;;;13.60;51.50;;;;;;5023922;28;20069;-72
2023/05/02 09:59:22;;;;;;;2.88;1.38;;;13.80;50.30;;;;;;5011311;28;20103;-71
2023/05/02 10:02:00;;;;;;;1.98;1.13;;;13.90;51.20;;;;;;5007261;28;20040;-71
2023/05/02 10:04:27;;;;;;;2.58;0.90;;;14.00;49.20;;;;;;5025329;28;20045;-70
2023/05/02 10:06:53;;;;;;;3.50;1.20;;;14.40;51.40;;;;;;5018164;28;20496;-70
2023/05/02 10:09:20;;;;;;;2.67;1.60;;;14.60;50.10;;;;;;5025955;28;20877;-70
2023/05/02 10:11:49;;;;;;;3.13;1.00;;;14.90;49.50;;;;;;5027752;28;20128;-70
2023/05/02 10:14:17;;;;;;;3.80;1.00;;;14.90;49.10;;;;;;5025707;28;20081;-70
2023/05/02 10:16:53;;;;;;;2.60;0.90;;;14.60;49.10;;;;;;5007431;28;20041;-69
2023/05/02 10:19:23;;;;;;;5.15;1.45;;;14.50;47.70;;;;;;5024924;28;20499;-69
2023/05/02 10:21:50;;;;;;;3.33;1.15;;;14.40;49.40;;;;;;5003774;28;20047;-70
2023/05/02 10:24:16;;;;;;;4.25;1.40;;;14.20;49.80;;;;;;5020329;28;20503;-70
2023/05/02 10:26:43;;;;;;;2.92;1.20;;;14.00;49.70;;;;;;5015460;28;20034;-70
2023/05/02 10:29:10;;;;;;;5.00;1.25;;;13.90;49.90;;;;;;5025517;28;20037;-71
2023/05/02 10:31:38;;;;;;;2.30;1.23;;;13.60;50.20;;;;;;4990781;28;20057;-71
2023/05/02 10:34:05;;;;;;;2.22;1.10;;;13.60;50.80;;;;;;5022844;28;20717;-70
2023/05/02 10:36:32;;;;;;;4.75;1.20;;;13.30;50.90;;;;;;5022471;28;20045;-70
2023/05/02 10:38:59;;;;;;;3.47;1.15;;;13.20;51.10;;;;;;5004846;28;20077;-70
2023/05/02 10:41:28;;;;;;;3.58;1.55;;;13.10;51.70;;;;;;5023101;28;20557;-71
2023/05/02 10:43:53;;;;;;;2.03;1.00;;;13.10;52.10;;;;;;5024730;28;20029;-69
2023/05/02 10:46:28;;;;;;;3.92;1.20;;;13.10;52.40;;;;;;5015449;28;20029;-71
2023/05/02 10:49:05;;;;;;;4.35;1.20;;;13.20;52.00;;;;;;5021888;28;20052;-71
2023/05/02 10:51:31;;;;;;;3.15;1.10;;;13.30;51.40;;;;;;5013053;28;20182;-71
2023/05/02 10:54:15;;;;;;;3.08;1.35;;;13.60;52.20;;;;;;5015237;28;20402;-69
2023/05/02 10:57:03;;;;;;;7.30;1.20;;;13.80;50.80;;;;;;5021413;28;20041;-71
2023/05/02 10:59:30;;;;;;;3.35;1.10;;;14.10;49.60;;;;;;5011719;28;20439;-70
2023/05/02 11:01:56;;;;;;;4.57;1.40;;;14.40;50.20;;;;;;5006631;28;20038;-71
2023/05/02 11:04:23;;;;;;;3.33;1.00;;;14.40;50.20;;;;;;5023788;28;20133;-70
2023/05/02 11:07:03;;;;;;;2.15;0.90;;;14.20;51.20;;;;;;5020284;28;20030;-68
2023/05/02 11:09:29;;;;;;;;;;;13.90;50.20;;;;;;5024553;28;20034;-69
2023/05/02 11:11:56;;;;;;;3.25;1.02;;;13.70;50.20;;;;;;5023090;28;19917;-69
2023/05/02 11:14:24;;;;;;;6.15;1.33;;;13.40;52.10;;;;;;5031526;28;20073;-70
2023/05/02 11:16:56;;;;;;;5.15;1.13;;;13.20;52.40;;;;;;5012510;28;20041;-70
2023/05/02 11:19:23;;;;;;;2.58;1.20;;;13.00;52.30;;;;;;5029729;28;20103;-71
2023/05/02 11:21:49;;;;;;;2.72;0.90;;;12.90;52.70;;;;;;5030505;28;20139;-71
2023/05/02 11:24:41;;;;;;;2.13;0.80;;;12.90;52.80;;;;;;5024611;28;20412;-69
2023/05/02 11:27:32;;;;;;;4.18;1.08;;;13.00;51.60;;;;;;5024578;28;20072;-70
2023/05/02 11:30:08;;;;;;;2.33;0.80;;;13.10;51.20;;;;;;5024660;28;20052;-70
2023/05/02 11:32:47;;;;;;;3.33;1.00;;;13.30;51.90;;;;;;5021902;28;20049;-70
2023/05/02 11:35:16;;;;;;;1.98;1.05;;;13.40;50.60;;;;;;5026154;28;20056;-70
2023/05/02 11:37:42;;;;;;;2.83;1.10;;;13.70;50.60;;;;;;4999109;28;20049;-70
2023/05/02 11:40:11;;;;;;;3.90;1.20;;;13.80;50.50;;;;;;5025308;28;20046;-71
2023/05/02 11:42:37;;;;;;;4.72;1.48;;;13.90;49.90;;;;;;5020588;28;20401;-70
2023/05/02 11:45:03;;;;;;;5.40;1.27;;;13.80;50.40;;;;;;5020534;28;20053;-71
2023/05/02 11:47:32;;;;;;;1.70;0.90;;;13.90;50.40;;;;;;5012767;28;20610;-70
2023/05/02 11:50:00;;;;;;;4.43;1.23;;;14.00;50.40;;;;;;5026389;28;20045;-70
2023/05/02 11:52:26;;;;;;;4.13;1.00;;;14.20;50.30;;;;;;5021864;28;20106;-72
2023/05/02 11:54:55;;;;;;;3.10;0.93;;;14.20;49.90;;;;;;5042625;28;20486;-70
2023/05/02 11:57:24;;;;;;;4.72;1.13;;;14.00;49.00;;;;;;5021823;28;20053;-70
2023/05/02 11:59:54;;;;;;;3.08;1.08;;;13.80;50.00;;;;;;5009381;28;20046;-69
2023/05/02 12:02:38;;;;;;;4.60;1.30;;;13.50;50.50;;;;;;5020385;28;20038;-70
2023/05/02 12:05:07;;;;;;;4.55;1.08;;;13.30;50.70;;;;;;5009259;28;20459;-71
2023/05/02 12:07:37;;;;;;;3.22;1.33;;;13.20;51.80;;;;;;5026734;28;20069;-69
2023/05/02 12:10:03;;;;;;;3.63;1.08;;;13.20;52.00;;;;;;5017409;28;20528;-69
2023/05/02 12:12:29;;;;;;;5.43;1.30;;;13.00;52.80;;;;;;5020324;28;20045;-70
2023/05/02 12:14:55;;;;;;;4.05;1.35;;;13.00;53.10;;;;;;5004876;28;20048;-70
2023/05/02 12:17:21;;;;;;;2.88;1.25;;;12.90;53.00;;;;;;5022315;28;20123;-69
2023/05/02 12:19:47;;;;;;;6.53;1.75;;;13.00;53.30;;;;;;5027757;28;20965;-70
2023/05/02 12:22:14;;;;;;;5.22;1.58;;;13.20;52.80;;;;;;5030453;28;20471;-70
2023/05/02 12:24:40;;;;;;;4.45;1.30;;;13.50;52.50;;;;;;5022991;28;20052;-71
2023/05/02 12:27:15;;;;;;;5.40;1.73;;;13.90;51.90;;;;;;5025549;28;20126;-71
2023/05/02 12:29:42;;;;;;;5.15;1.40;;;14.50;51.70;;;;;;5023407;28;20100;-71
2023/05/02 12:32:09;;;;;;;4.00;1.10;;;14.70;50.50;;;;;;5005117;28;20077;-72
2023/05/02 12:34:35;;;;;;;4.30;1.40;;;14.70;50.30;;;;;;5020135;28;21688;-71
2023/05/02 12:37:02;;;;;;;2.38;0.90;;;14.30;50.30;;;;;;5010274;28;20131;-72
2023/05/02 12:39:42;;;;;;;3.72;1.25;;;14.10;50.10;;;;;;5006654;28;20078;-70
2023/05/02 12:42:15;;;;;;;4.75;1.33;;;13.80;50.40;;;;;;5014521;28;20080;-71
2023/05/02 12:44:45;;;;;;;1.90;0.98;;;13.40;51.30;;;;;;5002409;28;20038;-71
2023/05/02 12:47:13;;;;;;;2.90;0.93;;;13.10;52.50;;;;;;5006462;28;20045;-72
2023/05/02 12:49:50;;;;;;;2.65;1.00;;;13.00;53.00;;;;;;5010780;28;20037;-71
2023/05/02 12:52:17;;;;;;;2.38;0.80;;;12.90;52.70;;;;;;5033336;28;20049;-71
2023/05/02 12:54:43;;;;;;;3.10;1.17;;;12.90;53.10;;;;;;5003588;28;20034;-71